States of Jersey

Home Log in

METAR EGJJ 190220Z AUTO 20011KT 9999 NCD 17/16 Q1015

METAR EGJB 190150Z 20013KT 9999 BKN015 17/16 Q1014

METAR LFRD 190230Z AUTO 19007KT CAVOK 16/15 Q1016 TEMPO BKN008

METAR LFRC 190230Z AUTO 21010KT 9999 FEW011 16/14 Q1015